createdAt,value
2019-05-07T00:00:47.881Z,75.00
2019-05-07T00:03:16.773Z,78.10
2019-05-07T00:05:45.216Z,78.20
2019-05-07T00:08:13.719Z,78.50
2019-05-07T00:10:42.674Z,77.90
2019-05-07T00:13:12.908Z,77.60
2019-05-07T00:15:42.033Z,77.70
2019-05-07T00:18:12.689Z,78.20
2019-05-07T00:20:42.339Z,78.90
2019-05-07T00:23:12.401Z,79.00
2019-05-07T00:25:42.147Z,80.00
2019-05-07T00:28:12.264Z,80.40
2019-05-07T00:30:42.453Z,80.40
2019-05-07T00:33:13.169Z,80.20
2019-05-07T00:35:48.514Z,80.40
2019-05-07T00:38:18.929Z,81.20
2019-05-07T00:40:59.947Z,82.70
2019-05-07T00:43:32.252Z,84.50
2019-05-07T00:46:10.040Z,85.70
2019-05-07T00:48:38.561Z,86.40
2019-05-07T00:51:29.355Z,88.10
2019-05-07T00:53:58.094Z,89.10
2019-05-07T00:56:26.550Z,89.40
2019-05-07T00:58:55.032Z,89.80
2019-05-07T01:01:23.578Z,90.20
2019-05-07T01:03:53.374Z,90.80
2019-05-07T01:06:23.506Z,91.30
2019-05-07T01:08:52.601Z,91.70
2019-05-07T01:11:22.647Z,91.60
2019-05-07T01:13:52.151Z,90.60
2019-05-07T01:16:22.218Z,90.90
2019-05-07T01:18:50.993Z,90.20
2019-05-07T01:21:19.864Z,90.00
2019-05-07T01:23:48.397Z,89.70
2019-05-07T01:26:17.269Z,89.60
2019-05-07T01:29:02.988Z,90.10
2019-05-07T01:31:52.549Z,90.20
2019-05-07T01:34:48.893Z,90.90
2019-05-07T01:37:17.232Z,91.20
2019-05-07T01:39:45.737Z,92.30
2019-05-07T01:42:14.177Z,93.00
2019-05-07T01:44:43.212Z,93.80
2019-05-07T01:47:13.049Z,94.50
2019-05-07T01:49:42.351Z,94.90
2019-05-07T01:52:13.098Z,95.70
2019-05-07T01:54:42.552Z,96.70
2019-05-07T01:57:12.315Z,97.30
2019-05-07T01:59:42.725Z,98.10
2019-05-07T02:02:18.669Z,98.60
2019-05-07T02:04:54.744Z,99.40
2019-05-07T02:07:36.361Z,99.60
2019-05-07T02:10:42.753Z,99.90
2019-05-07T02:13:12.581Z,99.90
2019-05-07T02:15:42.773Z,99.90
2019-05-07T02:18:12.577Z,99.90
2019-05-07T02:20:42.664Z,99.90
2019-05-07T02:23:12.791Z,99.90
2019-05-07T02:25:42.095Z,99.90
2019-05-07T02:28:12.869Z,99.90
2019-05-07T02:30:44.528Z,99.90
2019-05-07T02:33:13.827Z,99.90
2019-05-07T02:35:43.921Z,99.90
2019-05-07T02:38:24.962Z,99.90
2019-05-07T02:41:02.854Z,99.90
2019-05-07T02:43:33.726Z,99.90
2019-05-07T02:46:29.397Z,99.90
2019-05-07T02:49:13.501Z,99.90
2019-05-07T02:55:45.382Z,99.90
2019-05-07T02:58:13.946Z,99.90
2019-05-07T03:00:43.415Z,99.90
2019-05-07T03:03:13.718Z,99.90
2019-05-07T03:05:43.362Z,99.90
2019-05-07T03:08:13.513Z,99.90
2019-05-07T03:10:43.529Z,99.90
2019-05-07T03:13:13.682Z,99.90
2019-05-07T03:15:43.470Z,99.90
2019-05-07T03:18:13.824Z,99.90
2019-05-07T03:20:53.384Z,99.90
2019-05-07T03:23:24.949Z,99.90
2019-05-07T03:26:17.115Z,99.90
2019-05-07T03:28:53.115Z,99.90
2019-05-07T03:31:47.157Z,99.90
2019-05-07T03:34:37.260Z,99.90
2019-05-07T03:37:07.465Z,99.90
2019-05-07T03:39:35.975Z,99.90
2019-05-07T03:42:04.396Z,99.90
2019-05-07T03:44:58.456Z,99.90
2019-05-07T03:47:33.231Z,99.90
2019-05-07T03:50:03.454Z,99.90
2019-05-07T03:52:33.499Z,99.90
2019-05-07T03:55:03.756Z,99.90
2019-05-07T03:57:33.379Z,99.90
2019-05-07T04:00:04.235Z,99.90
2019-05-07T04:02:33.652Z,99.90
2019-05-07T04:05:04.365Z,99.90
2019-05-07T04:07:33.719Z,99.90
2019-05-07T04:10:04.363Z,99.90
2019-05-07T04:12:34.212Z,99.90
2019-05-07T04:15:03.398Z,99.90
2019-05-07T04:17:33.846Z,99.90
2019-05-07T04:20:04.380Z,99.90
2019-05-07T04:22:34.526Z,99.90
2019-05-07T04:25:23.935Z,99.90
2019-05-07T04:28:17.463Z,99.90
2019-05-07T04:30:46.161Z,99.90
2019-05-07T04:33:16.257Z,99.90
2019-05-07T04:36:02.906Z,99.90
2019-05-07T04:38:33.139Z,99.90
2019-05-07T04:41:03.610Z,99.90
2019-05-07T04:43:33.343Z,99.90
2019-05-07T04:46:03.250Z,99.90
2019-05-07T04:48:34.143Z,99.90
2019-05-07T04:51:04.257Z,99.90
2019-05-07T04:53:32.990Z,99.90
2019-05-07T04:56:03.338Z,99.90
2019-05-07T04:58:33.820Z,99.90
2019-05-07T05:01:03.365Z,99.90
2019-05-07T05:03:34.189Z,99.90
2019-05-07T05:06:02.743Z,99.90
2019-05-07T05:08:32.498Z,99.90
2019-05-07T05:11:03.281Z,99.90
2019-05-07T05:13:33.082Z,99.90
2019-05-07T05:16:22.434Z,99.90
2019-05-07T05:18:51.760Z,99.90
2019-05-07T05:21:35.450Z,99.90
2019-05-07T05:24:12.492Z,99.90
2019-05-07T05:26:41.925Z,99.90
2019-05-07T05:29:12.123Z,99.90
2019-05-07T05:31:42.173Z,99.90
2019-05-07T05:34:12.865Z,99.90
2019-05-07T05:36:42.484Z,99.90
2019-05-07T05:39:13.150Z,99.90
2019-05-07T05:41:43.385Z,99.90
2019-05-07T05:44:32.139Z,99.90
2019-05-07T05:47:02.374Z,99.90
2019-05-07T05:49:32.167Z,99.90
2019-05-07T05:52:16.604Z,99.90
2019-05-07T05:54:58.341Z,99.90
2019-05-07T05:57:58.029Z,99.90
2019-05-07T06:00:54.911Z,99.90
2019-05-07T06:03:45.842Z,99.90
2019-05-07T06:06:32.700Z,99.90
2019-05-07T06:09:26.413Z,99.90
2019-05-07T06:12:13.053Z,99.90
2019-05-07T06:14:51.168Z,99.90
2019-05-07T06:17:37.527Z,99.90
2019-05-07T06:20:25.184Z,99.90
2019-05-07T06:23:33.035Z,99.90
2019-05-07T06:26:05.122Z,99.90
2019-05-07T06:28:33.002Z,99.90
2019-05-07T06:31:02.215Z,99.90
2019-05-07T06:33:32.420Z,99.90
2019-05-07T06:36:02.857Z,99.90
2019-05-07T06:38:35.420Z,99.90
2019-05-07T06:41:26.585Z,98.80
2019-05-07T06:44:02.096Z,96.80
2019-05-07T06:46:32.312Z,95.80
2019-05-07T06:49:02.181Z,95.10
2019-05-07T06:51:44.308Z,94.20
2019-05-07T06:54:13.254Z,93.50
2019-05-07T06:56:42.185Z,93.10
2019-05-07T06:59:16.617Z,92.40
2019-05-07T07:01:54.181Z,91.70
2019-05-07T07:04:39.564Z,90.30
2019-05-07T07:07:27.386Z,89.50
2019-05-07T07:10:02.704Z,87.90
2019-05-07T07:12:33.126Z,85.30
2019-05-07T07:15:02.753Z,83.30
2019-05-07T07:17:32.610Z,77.20
2019-05-07T07:20:02.069Z,76.70
2019-05-07T07:22:31.983Z,74.00
2019-05-07T07:25:02.902Z,69.10
2019-05-07T07:27:32.183Z,69.30
2019-05-07T07:30:09.180Z,67.80
2019-05-07T07:32:38.637Z,66.80
2019-05-07T07:35:09.338Z,67.00
2019-05-07T07:37:43.052Z,65.90
2019-05-07T07:40:36.117Z,65.40
2019-05-07T07:43:07.002Z,63.30
2019-05-07T07:45:35.068Z,62.80
2019-05-07T07:48:03.986Z,61.00
2019-05-07T07:50:32.990Z,61.20
2019-05-07T07:53:02.694Z,60.50
2019-05-07T07:55:36.991Z,60.80
2019-05-07T07:58:18.544Z,59.60
2019-05-07T08:01:02.841Z,59.60
2019-05-07T08:03:32.935Z,60.00
2019-05-07T08:06:02.186Z,59.40
2019-05-07T08:08:32.003Z,59.20
2019-05-07T08:11:02.392Z,59.70
2019-05-07T08:13:32.497Z,60.00
2019-05-07T08:16:02.455Z,57.90
2019-05-07T08:18:32.763Z,58.10
2019-05-07T08:21:02.534Z,58.00
2019-05-07T08:23:31.988Z,59.20
2019-05-07T08:26:02.397Z,58.80
2019-05-07T08:28:31.916Z,57.90
2019-05-07T08:31:19.227Z,58.00
2019-05-07T08:33:57.201Z,57.60
2019-05-07T08:36:25.649Z,56.80
2019-05-07T08:38:55.728Z,56.20
2019-05-07T08:41:25.800Z,56.80
2019-05-07T08:44:10.717Z,56.70
2019-05-07T08:46:55.660Z,56.60
2019-05-07T08:49:35.905Z,55.70
2019-05-07T08:52:03.321Z,56.50
2019-05-07T08:54:32.355Z,56.20
2019-05-07T08:57:01.976Z,55.60
2019-05-07T08:59:32.288Z,55.80
2019-05-07T09:02:02.882Z,55.80
2019-05-07T09:04:32.747Z,55.50
2019-05-07T09:07:02.684Z,56.40
2019-05-07T09:09:32.443Z,54.10
2019-05-07T09:12:02.979Z,54.50
2019-05-07T09:14:32.024Z,54.50
2019-05-07T09:17:02.579Z,55.20
2019-05-07T09:19:32.287Z,53.70
2019-05-07T09:22:02.122Z,53.10
2019-05-07T09:24:33.296Z,53.40
2019-05-07T09:27:12.917Z,53.50
2019-05-07T09:30:02.684Z,53.30
2019-05-07T09:32:53.993Z,52.70
2019-05-07T09:35:25.956Z,51.80
2019-05-07T09:37:54.390Z,52.50
2019-05-07T09:40:22.907Z,52.40
2019-05-07T09:42:52.550Z,51.30
2019-05-07T09:45:22.497Z,50.10
2019-05-07T09:47:52.229Z,50.30
2019-05-07T09:50:22.061Z,50.10
2019-05-07T09:52:51.860Z,49.30
2019-05-07T09:55:23.156Z,50.10
2019-05-07T09:57:52.799Z,49.80
2019-05-07T10:00:22.598Z,50.70
2019-05-07T10:02:52.820Z,51.10
2019-05-07T10:05:21.609Z,51.40
2019-05-07T10:07:50.052Z,50.80
2019-05-07T10:10:18.699Z,51.40
2019-05-07T10:13:18.657Z,50.30
2019-05-07T10:15:47.252Z,49.80
2019-05-07T10:18:17.393Z,50.00
2019-05-07T10:20:46.198Z,49.60
2019-05-07T10:23:23.038Z,49.60
2019-05-07T10:25:52.152Z,48.90
2019-05-07T10:28:22.705Z,49.00
2019-05-07T10:30:52.335Z,50.60
2019-05-07T10:33:22.722Z,50.20
2019-05-07T10:35:52.878Z,50.60
2019-05-07T10:38:21.852Z,48.50
2019-05-07T10:40:50.493Z,48.60
2019-05-07T10:43:18.951Z,48.50
2019-05-07T10:46:19.083Z,48.50
2019-05-07T10:49:06.865Z,48.80
2019-05-07T10:51:35.840Z,48.00
2019-05-07T10:54:04.445Z,48.00
2019-05-07T10:56:32.958Z,48.10
2019-05-07T10:59:02.853Z,47.90
2019-05-07T11:01:42.406Z,46.80
2019-05-07T11:04:12.670Z,47.70
2019-05-07T11:06:41.768Z,48.40
2019-05-07T11:09:10.765Z,48.20
2019-05-07T11:11:39.261Z,47.50
2019-05-07T11:14:07.717Z,47.20
2019-05-07T11:16:43.316Z,46.60
2019-05-07T11:19:12.747Z,45.90
2019-05-07T11:21:41.874Z,46.50
2019-05-07T11:24:12.123Z,46.20
2019-05-07T11:26:41.984Z,46.30
2019-05-07T11:29:12.853Z,45.20
2019-05-07T11:31:42.378Z,45.90
2019-05-07T11:34:11.973Z,46.50
2019-05-07T11:36:42.949Z,46.60
2019-05-07T11:39:12.179Z,46.20
2019-05-07T11:41:59.204Z,47.80
2019-05-07T11:44:29.060Z,47.50
2019-05-07T11:47:22.486Z,47.20
2019-05-07T11:50:09.378Z,47.80
2019-05-07T11:52:42.533Z,46.90
2019-05-07T11:55:12.059Z,45.20
2019-05-07T11:57:44.203Z,46.40
2019-05-07T12:00:21.865Z,46.70
2019-05-07T12:02:51.881Z,49.30
2019-05-07T12:05:22.557Z,49.50
2019-05-07T12:07:50.894Z,50.10
2019-05-07T12:10:19.696Z,51.20
2019-05-07T12:12:48.206Z,50.10
2019-05-07T12:15:17.164Z,50.70
2019-05-07T12:17:46.166Z,51.90
2019-05-07T12:20:15.267Z,52.10
2019-05-07T12:22:46.837Z,52.40
2019-05-07T12:25:16.222Z,52.10
2019-05-07T12:27:44.874Z,52.00
2019-05-07T12:30:16.839Z,52.70
2019-05-07T12:33:07.740Z,52.80
2019-05-07T12:35:36.294Z,52.60
2019-05-07T12:38:04.830Z,52.50
2019-05-07T12:40:33.285Z,53.30
2019-05-07T12:43:02.095Z,53.30
2019-05-07T12:45:31.020Z,52.50
2019-05-07T12:47:59.522Z,52.30
2019-05-07T12:50:27.985Z,52.80
2019-05-07T12:53:05.038Z,52.80
2019-05-07T12:55:37.883Z,52.30
2019-05-07T12:58:06.450Z,53.90
2019-05-07T13:00:52.773Z,53.40
2019-05-07T13:03:36.791Z,54.20
2019-05-07T13:06:05.257Z,54.40
2019-05-07T13:08:33.785Z,53.90
2019-05-07T13:11:03.066Z,54.10
2019-05-07T13:13:32.132Z,53.90
2019-05-07T13:16:02.733Z,53.70
2019-05-07T13:18:31.427Z,54.40
2019-05-07T13:21:02.229Z,53.60
2019-05-07T13:23:31.825Z,54.10
2019-05-07T13:26:02.375Z,54.40
2019-05-07T13:28:30.941Z,53.10
2019-05-07T13:30:59.375Z,53.30
2019-05-07T13:33:29.219Z,53.20
2019-05-07T13:35:57.717Z,52.30
2019-05-07T13:38:48.445Z,53.10
2019-05-07T13:41:42.269Z,53.40
2019-05-07T13:44:31.899Z,53.20
2019-05-07T13:47:18.712Z,53.30
2019-05-07T13:49:47.901Z,52.00
2019-05-07T13:52:16.953Z,51.70
2019-05-07T13:54:45.502Z,52.10
2019-05-07T13:57:13.926Z,52.00
2019-05-07T13:59:42.531Z,51.80
2019-05-07T14:02:15.169Z,51.80
2019-05-07T14:04:42.437Z,50.90
2019-05-07T14:07:12.659Z,51.80
2019-05-07T14:09:41.989Z,51.70
2019-05-07T14:12:12.325Z,52.20
2019-05-07T14:14:42.609Z,51.70
2019-05-07T14:17:12.717Z,51.80
2019-05-07T14:19:42.292Z,51.90
2019-05-07T14:22:17.933Z,51.70
2019-05-07T14:24:42.210Z,50.70
2019-05-07T14:27:10.799Z,50.60
2019-05-07T14:29:39.380Z,50.30
2019-05-07T14:32:27.156Z,50.80
2019-05-07T14:35:27.590Z,51.00
2019-05-07T14:38:03.473Z,50.30
2019-05-07T14:40:32.351Z,50.80
2019-05-07T14:43:23.368Z,50.80
2019-05-07T14:45:52.261Z,50.70
2019-05-07T14:48:22.580Z,50.80
2019-05-07T14:50:53.052Z,50.80
2019-05-07T14:53:22.385Z,50.90
2019-05-07T14:55:51.085Z,50.40
2019-05-07T14:58:19.520Z,50.60
2019-05-07T15:00:48.005Z,50.10
2019-05-07T15:03:17.097Z,50.00
2019-05-07T15:05:45.596Z,50.40
2019-05-07T15:08:14.651Z,50.00
2019-05-07T15:10:43.340Z,50.60
2019-05-07T15:13:12.714Z,50.70
2019-05-07T15:15:41.401Z,51.40
2019-05-07T15:18:16.774Z,51.20
2019-05-07T15:20:45.205Z,51.50
2019-05-07T15:23:17.997Z,51.70
2019-05-07T15:25:47.785Z,51.30
2019-05-07T15:28:17.478Z,51.50
2019-05-07T15:31:12.097Z,51.30
2019-05-07T15:33:41.786Z,50.90
2019-05-07T15:36:11.939Z,51.30
2019-05-07T15:38:42.957Z,50.90
2019-05-07T15:41:11.325Z,51.10
2019-05-07T15:43:39.826Z,51.10
2019-05-07T15:46:08.278Z,51.60
2019-05-07T15:48:37.220Z,51.00
2019-05-07T15:51:05.668Z,51.10
2019-05-07T15:53:45.890Z,50.70
2019-05-07T15:56:14.380Z,51.70
2019-05-07T15:58:42.952Z,52.00
2019-05-07T16:01:12.884Z,51.90
2019-05-07T16:03:43.196Z,52.00
2019-05-07T16:06:12.712Z,51.80
2019-05-07T16:08:53.270Z,52.60
2019-05-07T16:11:23.281Z,53.60
2019-05-07T16:14:12.409Z,53.90
2019-05-07T16:16:43.471Z,53.60
2019-05-07T16:19:26.178Z,54.10
2019-05-07T16:21:55.125Z,54.30
2019-05-07T16:24:23.617Z,54.80
2019-05-07T16:26:52.402Z,56.00
2019-05-07T16:29:22.507Z,57.00
2019-05-07T16:31:52.111Z,56.90
2019-05-07T16:34:22.012Z,57.50
2019-05-07T16:36:51.213Z,57.80
2019-05-07T16:39:19.730Z,57.50
2019-05-07T16:41:48.171Z,58.20
2019-05-07T16:44:17.081Z,58.50
2019-05-07T16:46:45.527Z,59.30
2019-05-07T16:49:14.022Z,60.00
2019-05-07T16:51:44.744Z,60.80
2019-05-07T16:54:12.812Z,61.90
2019-05-07T16:57:02.898Z,63.90
2019-05-07T16:59:32.414Z,66.50
2019-05-07T17:02:05.742Z,69.00
2019-05-07T17:04:34.663Z,70.60
2019-05-07T17:07:04.893Z,72.20
2019-05-07T17:09:35.281Z,73.40
2019-05-07T17:12:06.312Z,74.50
2019-05-07T17:14:34.807Z,76.30
2019-05-07T17:17:03.622Z,78.50
2019-05-07T17:19:32.108Z,80.00
2019-05-07T17:22:02.355Z,81.40
2019-05-07T17:24:32.856Z,83.70
2019-05-07T17:27:02.307Z,87.20
2019-05-07T17:29:32.131Z,89.90
2019-05-07T17:32:01.671Z,92.20
2019-05-07T17:34:30.589Z,94.60
2019-05-07T17:36:58.918Z,96.40
2019-05-07T17:39:27.417Z,99.00
2019-05-07T17:41:55.844Z,99.90
2019-05-07T17:44:24.752Z,99.90
2019-05-07T17:46:53.177Z,99.90
2019-05-07T17:49:21.939Z,99.90
2019-05-07T17:51:52.470Z,99.90
2019-05-07T17:54:22.470Z,99.90
2019-05-07T17:56:52.675Z,99.90
2019-05-07T17:59:21.606Z,99.90
2019-05-07T18:02:05.709Z,99.90
2019-05-07T18:04:47.566Z,99.90
2019-05-07T18:07:06.645Z,99.90
2019-05-07T18:09:35.117Z,99.90
2019-05-07T18:12:03.613Z,99.90
2019-05-07T18:14:32.283Z,99.90
2019-05-07T18:17:13.061Z,99.90
2019-05-07T18:19:41.857Z,99.90
2019-05-07T18:22:12.668Z,99.90
2019-05-07T18:24:41.957Z,99.90
2019-05-07T18:27:14.772Z,99.90
2019-05-07T18:29:43.213Z,99.90
2019-05-07T18:32:12.422Z,99.90
2019-05-07T18:34:42.753Z,99.90
2019-05-07T18:37:12.611Z,99.90
2019-05-07T18:39:45.713Z,99.90
2019-05-07T18:42:14.213Z,99.90
2019-05-07T18:44:42.710Z,99.90
2019-05-07T18:47:12.916Z,99.90
2019-05-07T18:49:42.936Z,99.90
2019-05-07T18:52:12.548Z,99.90
2019-05-07T18:54:42.767Z,99.90
2019-05-07T18:57:11.614Z,99.90
2019-05-07T18:59:42.186Z,99.90
2019-05-07T19:02:11.420Z,99.90
2019-05-07T19:04:42.149Z,99.90
2019-05-07T19:07:13.167Z,99.90
2019-05-07T19:09:42.530Z,99.90
2019-05-07T19:12:13.652Z,99.90
2019-05-07T19:14:43.469Z,99.90
2019-05-07T19:17:13.518Z,99.90
2019-05-07T19:19:43.959Z,99.90
2019-05-07T19:22:13.904Z,99.90
2019-05-07T19:24:47.878Z,99.90
2019-05-07T19:27:15.400Z,99.90
2019-05-07T19:29:45.940Z,99.90
2019-05-07T19:32:17.447Z,99.90
2019-05-07T19:34:47.485Z,99.90
2019-05-07T19:37:18.463Z,99.90
2019-05-07T19:39:48.351Z,99.90
2019-05-07T19:42:18.215Z,99.90
2019-05-07T19:44:49.287Z,99.90
2019-05-07T19:47:19.144Z,99.90
2019-05-07T19:49:48.738Z,99.90
2019-05-07T19:52:19.463Z,99.90
2019-05-07T19:54:58.796Z,99.90
2019-05-07T19:57:26.515Z,99.90
2019-05-07T19:59:56.209Z,99.90
2019-05-07T20:02:32.124Z,99.90
2019-05-07T20:05:03.518Z,99.90
2019-05-07T20:07:35.122Z,99.90
2019-05-07T20:10:05.486Z,99.90
2019-05-07T20:12:35.951Z,99.90
2019-05-07T20:15:06.016Z,99.90
2019-05-07T20:17:35.954Z,99.90
2019-05-07T20:20:06.450Z,99.90
2019-05-07T20:22:38.319Z,99.90
2019-05-07T20:25:16.455Z,99.90
2019-05-07T20:27:41.722Z,99.90
2019-05-07T20:30:12.154Z,99.90
2019-05-07T20:32:42.832Z,99.90
2019-05-07T20:35:12.934Z,99.90
2019-05-07T20:37:42.733Z,99.90
2019-05-07T20:40:12.689Z,99.90
2019-05-07T20:42:42.802Z,99.90
2019-05-07T20:45:13.554Z,99.90
2019-05-07T20:47:43.273Z,99.90
2019-05-07T20:50:13.035Z,99.90
2019-05-07T20:52:43.076Z,99.90
2019-05-07T20:55:34.911Z,99.90
2019-05-07T20:58:05.193Z,99.90
2019-05-07T21:00:35.542Z,99.90
2019-05-07T21:03:19.901Z,99.90
2019-05-07T21:05:54.956Z,99.90
2019-05-07T21:08:23.489Z,99.90
2019-05-07T21:10:53.525Z,99.90
2019-05-07T21:13:31.077Z,99.90
2019-05-07T21:15:52.767Z,99.90
2019-05-07T21:18:23.243Z,99.90
2019-05-07T21:20:53.081Z,99.90
2019-05-07T21:23:23.152Z,99.90
2019-05-07T21:25:52.697Z,99.90
2019-05-07T21:28:21.812Z,99.90
2019-05-07T21:30:52.167Z,99.90
2019-05-07T21:33:22.954Z,99.90
2019-05-07T21:35:52.327Z,99.90
2019-05-07T21:38:22.427Z,99.90
2019-05-07T21:40:51.320Z,99.90
2019-05-07T21:43:22.213Z,99.90
2019-05-07T21:45:52.689Z,99.90
2019-05-07T21:48:22.289Z,99.90
2019-05-07T21:50:51.935Z,99.90
2019-05-07T21:53:35.317Z,99.90
2019-05-07T21:56:29.136Z,99.90
2019-05-07T21:59:03.026Z,99.90
2019-05-07T22:01:45.486Z,99.90
2019-05-07T22:04:14.000Z,99.90
2019-05-07T22:06:45.138Z,99.90
2019-05-07T22:09:13.934Z,99.90
2019-05-07T22:11:42.804Z,99.90
2019-05-07T22:14:12.897Z,99.90
2019-05-07T22:16:41.666Z,99.90
2019-05-07T22:19:12.097Z,99.90
2019-05-07T22:21:42.928Z,99.90
2019-05-07T22:24:14.687Z,99.90
2019-05-07T22:26:42.050Z,99.90
2019-05-07T22:29:12.516Z,99.90
2019-05-07T22:32:11.761Z,99.90
2019-05-07T22:34:59.332Z,99.90
2019-05-07T22:37:27.875Z,99.90
2019-05-07T22:39:56.372Z,99.90
2019-05-07T22:42:24.818Z,99.90
2019-05-07T22:44:53.314Z,99.90
2019-05-07T22:47:22.736Z,99.90
2019-05-07T22:49:53.490Z,99.90
2019-05-07T22:52:22.487Z,99.90
2019-05-07T22:54:51.716Z,99.90
2019-05-07T22:57:41.864Z,99.90
2019-05-07T23:00:12.938Z,99.90
2019-05-07T23:02:42.828Z,99.90
2019-05-07T23:05:12.226Z,99.90
2019-05-07T23:07:41.810Z,99.90
2019-05-07T23:10:11.887Z,99.90
2019-05-07T23:12:40.576Z,99.90
2019-05-07T23:15:09.111Z,99.90
2019-05-07T23:17:37.608Z,99.90
2019-05-07T23:20:06.241Z,99.90
2019-05-07T23:22:34.744Z,99.90
2019-05-07T23:25:03.178Z,99.90
2019-05-07T23:27:32.553Z,99.90
2019-05-07T23:30:02.530Z,99.90
2019-05-07T23:32:32.914Z,99.90
2019-05-07T23:35:02.577Z,99.90
2019-05-07T23:37:33.043Z,99.90
2019-05-07T23:40:04.685Z,99.90
2019-05-07T23:42:35.341Z,99.90
2019-05-07T23:45:04.222Z,99.90
2019-05-07T23:47:32.714Z,99.90
2019-05-07T23:50:02.056Z,99.90
2019-05-07T23:52:30.745Z,99.90
2019-05-07T23:54:59.697Z,99.90
2019-05-07T23:57:28.196Z,99.90
2019-05-07T23:59:56.704Z,99.90
